Schneifelwetter: Wetterstation Hallschlag, 537 m . NN
Wetterdaten: Mittwoch, 04.06.2008
Datum Zeit Temp. A. Temp. 2 Feuchte A. Luftdruck Regen Wind Richtung Richtung Sonnenschein Helligkeit T Regen Taupunkt Windchill
04.06.2008 00:02 13,1 C 11,4 C 81 % 1014 hPa 0,0 l/m 0,0 km/h (0 Bft) W 260 0 min 0 lux 0,00 min 9,9 C 13,1 C
04.06.2008 00:17 12,8 C 11,2 C 82 % 1014 hPa 0,0 l/m 8,5 km/h (2 Bft) W-SW 255 0 min 0 lux 0,00 min 9,8 C 11,5 C
04.06.2008 00:31 12,6 C 11,0 C 84 % 1014 hPa 0,0 l/m 1,2 km/h (1 Bft) W-NW45 295 0 min 0 lux 0,00 min 10,0 C 12,6 C
04.06.2008 00:46 12,5 C 11,0 C 84 % 1014 hPa 0,0 l/m 1,4 km/h (1 Bft) N 350 0 min 0 lux 0,00 min 9,9 C 12,5 C
04.06.2008 01:01 12,4 C 11,0 C 85 % 1014 hPa 0,0 l/m 0,0 km/h (0 Bft) N 350 0 min 0 lux 0,00 min 9,9 C 12,4 C
04.06.2008 01:16 12,3 C 11,2 C 85 % 1014 hPa 0,0 l/m 0,0 km/h (0 Bft) N 350 0 min 0 lux 0,00 min 9,9 C 12,3 C
04.06.2008 01:31 12,3 C 11,1 C 85 % 1014 hPa 0,0 l/m 0,0 km/h (0 Bft) N 350 0 min 0 lux 0,00 min 9,9 C 12,3 C
04.06.2008 01:46 12,0 C 10,7 C 85 % 1014 hPa 0,0 l/m 0,0 km/h (0 Bft) N 350 0 min 0 lux 0,00 min 9,6 C 12,0 C
04.06.2008 02:01 11,8 C 10,7 C 86 % 1014 hPa 0,0 l/m 0,0 km/h (0 Bft) N-NW 345 0 min 0 lux 0,00 min 9,5 C 11,8 C
04.06.2008 02:16 11,6 C 10,4 C 87 % 1014 hPa 0,0 l/m 0,0 km/h (0 Bft) N-NW 345 0 min 0 lux 0,00 min 9,5 C 11,6 C
04.06.2008 02:31 11,5 C 10,5 C 88 % 1014 hPa 0,0 l/m 0,0 km/h (0 Bft) N 350 0 min 0 lux 0,00 min 9,6 C 11,5 C
04.06.2008 02:46 11,5 C 10,7 C 89 % 1014 hPa 0,0 l/m 0,0 km/h (0 Bft) N 350 0 min 0 lux 0,00 min 9,8 C 11,5 C
04.06.2008 03:01 11,6 C 10,9 C 89 % 1014 hPa 0,0 l/m 0,0 km/h (0 Bft) N 350 0 min 0 lux 0,00 min 9,8 C 11,6 C
04.06.2008 03:16 11,8 C 11,0 C 89 % 1014 hPa 0,0 l/m 0,0 km/h (0 Bft) N 350 0 min 0 lux 0,00 min 10,0 C 11,8 C
04.06.2008 03:31 11,8 C 11,0 C 89 % 1014 hPa 0,0 l/m 0,0 km/h (0 Bft) N-NW 345 0 min 0 lux 0,00 min 10,0 C 11,8 C
04.06.2008 03:46 11,8 C 10,9 C 89 % 1014 hPa 0,0 l/m 0,0 km/h (0 Bft) N-NW 345 0 min 0 lux 0,00 min 10,0 C 11,8 C
04.06.2008 04:01 11,8 C 10,9 C 89 % 1014 hPa 0,0 l/m 0,0 km/h (0 Bft) N-NW 345 0 min 0 lux 0,00 min 10,0 C 11,8 C
04.06.2008 04:16 11,7 C 11,0 C 90 % 1014 hPa 0,0 l/m 0,0 km/h (0 Bft) N-NW 345 0 min 0 lux 0,00 min 10,1 C 11,7 C
04.06.2008 04:31 11,8 C 11,1 C 90 % 1014 hPa 0,0 l/m 0,0 km/h (0 Bft) N-NW 345 0 min 0 lux 0,00 min 10,2 C 11,8 C
04.06.2008 04:46 11,9 C 11,3 C 91 % 1014 hPa 0,0 l/m 0,0 km/h (0 Bft) N-NW 345 0 min 0 lux 0,00 min 10,5 C 11,9 C
04.06.2008 05:01 12,2 C 11,6 C 91 % 1014 hPa 0,0 l/m 5,1 km/h (1 Bft) W-SW22.5 245 0 min 0 lux 0,00 min 10,8 C 12,2 C
04.06.2008 05:16 12,6 C 12,1 C 92 % 1014 hPa 0,0 l/m 6,5 km/h (2 Bft) W-SW 255 0 min 53 lux 0,00 min 11,3 C 12,6 C
04.06.2008 05:31 12,9 C 12,5 C 92 % 1014 hPa 0,0 l/m 8,2 km/h (2 Bft) W-SW22.5 255 0 min 180 lux 0,00 min 11,6 C 11,8 C
04.06.2008 05:46 13,1 C 12,7 C 92 % 1014 hPa 0,0 l/m 7,1 km/h (2 Bft) W-SW 250 0 min 502 lux 0,00 min 11,8 C 12,7 C
04.06.2008 06:01 13,2 C 12,9 C 92 % 1014 hPa 0,0 l/m 7,5 km/h (2 Bft) W-SW 250 0 min 975 lux 0,00 min 11,9 C 12,5 C
04.06.2008 06:16 13,4 C 13,0 C 92 % 1014 hPa 0,0 l/m 7,9 km/h (2 Bft) W-SW22.5 250 0 min 2,01 klux 0,00 min 12,1 C 12,5 C
04.06.2008 06:31 13,6 C 13,2 C 92 % 1014 hPa 0,0 l/m 10,1 km/h (2 Bft) W 260 0 min 2,32 klux 0,00 min 12,3 C 11,5 C
04.06.2008 06:46 13,6 C 13,2 C 92 % 1014 hPa 0,0 l/m 8,8 km/h (2 Bft) W-SW22.5 250 0 min 2,05 klux 0,00 min 12,3 C 12,2 C
04.06.2008 07:01 13,7 C 13,3 C 91 % 1014 hPa 0,0 l/m 12,2 km/h (2 Bft) W22.5 260 0 min 3,61 klux 0,00 min 12,3 C 10,7 C
04.06.2008 07:16 13,8 C 13,4 C 91 % 1014 hPa 0,0 l/m 9,6 km/h (2 Bft) W-SW22.5 255 0 min 3,94 klux 0,00 min 12,4 C 12,0 C
04.06.2008 07:31 14,0 C 13,5 C 90 % 1015 hPa 0,0 l/m 12,0 km/h (2 Bft) W22.5 265 0 min 4,36 klux 0,00 min 12,4 C 11,1 C
04.06.2008 07:46 13,9 C 13,6 C 90 % 1015 hPa 0,0 l/m 10,8 km/h (2 Bft) W22.5 260 0 min 4,39 klux 0,00 min 12,3 C 11,5 C
04.06.2008 08:01 13,9 C 13,7 C 90 % 1015 hPa 0,0 l/m 11,8 km/h (2 Bft) W22.5 260 0 min 4,87 klux 0,00 min 12,3 C 11,1 C
04.06.2008 08:16 14,0 C 13,8 C 89 % 1015 hPa 0,0 l/m 10,9 km/h (2 Bft) W-SW 250 0 min 7,30 klux 0,00 min 12,2 C 11,6 C
04.06.2008 08:32 14,1 C 14,2 C 89 % 1015 hPa 0,0 l/m 6,0 km/h (2 Bft) W22.5 270 0 min 11,3 klux 0,00 min 12,3 C 14,1 C
04.06.2008 08:46 14,7 C 15,0 C 88 % 1015 hPa 0,0 l/m 6,8 km/h (2 Bft) W-NW22.5 290 0 min 19,6 klux 0,00 min 12,7 C 14,5 C
04.06.2008 09:01 15,1 C 15,3 C 86 % 1015 hPa 0,0 l/m 6,9 km/h (2 Bft) W22.5 260 0 min 15,7 klux 0,00 min 12,8 C 14,8 C
04.06.2008 09:16 15,7 C 16,0 C 85 % 1015 hPa 0,0 l/m 5,8 km/h (2 Bft) W-SW 245 0 min 26,4 klux 0,00 min 13,2 C 15,7 C
04.06.2008 09:31 16,8 C 17,3 C 81 % 1015 hPa 0,0 l/m 6,9 km/h (2 Bft) W45 275 0 min 45,8 klux 0,00 min 13,5 C 16,5 C
04.06.2008 09:46 16,9 C 17,4 C 80 % 1015 hPa 0,0 l/m 9,8 km/h (2 Bft) W22.5 260 0 min 26,3 klux 0,00 min 13,4 C 15,3 C
04.06.2008 10:01 17,4 C 17,7 C 78 % 1015 hPa 0,0 l/m 9,2 km/h (2 Bft) W-SW22.5 250 0 min 29,5 klux 0,00 min 13,5 C 16,1 C
04.06.2008 10:17 17,7 C 17,9 C 77 % 1015 hPa 0,0 l/m 13,1 km/h (3 Bft) W-SW22.5 255 0 min 34,4 klux 0,00 min 13,6 C 15,0 C
04.06.2008 10:31 18,4 C 18,5 C 76 % 1015 hPa 0,0 l/m 10,5 km/h (2 Bft) W-SW22.5 255 0 min 41,4 klux 0,00 min 14,1 C 16,7 C
04.06.2008 10:46 19,7 C 19,4 C 73 % 1015 hPa 0,0 l/m 5,6 km/h (1 Bft) S 170 15 min 80,4 klux 0,00 min 14,7 C 19,7 C
04.06.2008 11:01 20,1 C 20,1 C 69 % 1015 hPa 0,0 l/m 9,1 km/h (2 Bft) W 260 0 min 46,7 klux 0,00 min 14,2 C 19,1 C
04.06.2008 11:16 20,0 C 21,0 C 67 % 1015 hPa 0,0 l/m 5,8 km/h (2 Bft) W22.5 275 15 min 68,6 klux 0,00 min 13,7 C 20,0 C
04.06.2008 11:31 20,3 C 21,7 C 66 % 1015 hPa 0,0 l/m 6,7 km/h (2 Bft) SW45 235 0 min 56,1 klux 0,00 min 13,7 C 20,2 C
04.06.2008 11:46 20,2 C 21,4 C 67 % 1015 hPa 0,0 l/m 6,8 km/h (2 Bft) W22.5 265 0 min 35,8 klux 0,00 min 13,9 C 20,0 C
04.06.2008 12:01 20,4 C 21,2 C 67 % 1015 hPa 0,0 l/m 8,8 km/h (2 Bft) W-SW22.5 250 0 min 41,6 klux 0,00 min 14,1 C 19,5 C
04.06.2008 12:16 20,9 C 21,7 C 67 % 1015 hPa 0,0 l/m 9,1 km/h (2 Bft) W22.5 265 0 min 55,3 klux 0,00 min 14,5 C 19,9 C
04.06.2008 12:31 20,8 C 21,5 C 66 % 1015 hPa 0,0 l/m 14,9 km/h (3 Bft) W22.5 265 15 min 74,5 klux 0,00 min 14,2 C 18,2 C
04.06.2008 12:46 20,8 C 22,0 C 67 % 1015 hPa 0,0 l/m 13,6 km/h (3 Bft) W45 265 15 min 90,9 klux 0,00 min 14,4 C 18,5 C
04.06.2008 13:01 21,8 C 23,6 C 64 % 1015 hPa 0,0 l/m 11,2 km/h (2 Bft) W-SW22.5 255 15 min 94,5 klux 0,00 min 14,7 C 20,3 C
04.06.2008 13:16 21,5 C 24,2 C 65 % 1015 hPa 0,0 l/m 13,2 km/h (3 Bft) W22.5 265 15 min 105 klux 0,00 min 14,6 C 19,5 C
04.06.2008 13:31 20,8 C 22,9 C 64 % 1015 hPa 0,0 l/m 10,0 km/h (2 Bft) W-SW22.5 250 0 min 34,1 klux 0,00 min 13,7 C 19,5 C
04.06.2008 13:46 18,3 C 20,7 C 69 % 1015 hPa 0,0 l/m 14,8 km/h (3 Bft) NW22.5 315 0 min 8,41 klux 0,00 min 12,5 C 15,2 C
04.06.2008 14:02 17,0 C 19,0 C 74 % 1015 hPa 0,0 l/m 11,7 km/h (2 Bft) NO45 45 0 min 5,58 klux 0,00 min 12,3 C 14,7 C
04.06.2008 14:16 16,2 C 17,4 C 79 % 1015 hPa 0,3 l/m 11,3 km/h (2 Bft) N-NO22.5 25 0 min 5,89 klux 14,00 min 12,6 C 13,9 C
04.06.2008 14:31 15,9 C 16,7 C 83 % 1015 hPa 1,2 l/m 12,1 km/h (2 Bft) N-NO22.5 25 0 min 17,3 klux 15,00 min 13,0 C 13,3 C
04.06.2008 14:46 16,1 C 16,8 C 83 % 1015 hPa 0,9 l/m 10,2 km/h (2 Bft) N-NO22.5 20 0 min 19,8 klux 15,00 min 13,2 C 14,2 C
04.06.2008 15:01 16,5 C 16,9 C 83 % 1015 hPa 0,0 l/m 11,7 km/h (2 Bft) N22.5 5 0 min 26,4 klux 0,00 min 13,6 C 14,1 C
04.06.2008 15:16 16,9 C 17,6 C 82 % 1015 hPa 0,0 l/m 11,9 km/h (2 Bft) N-NO22.5 25 0 min 29,1 klux 0,00 min 13,8 C 14,5 C
04.06.2008 15:31 17,1 C 18,0 C 82 % 1015 hPa 0,0 l/m 8,1 km/h (2 Bft) N-NW22.5 330 0 min 23,6 klux 0,00 min 14,0 C 16,3 C
04.06.2008 15:46 16,9 C 17,4 C 82 % 1015 hPa 0,0 l/m 8,8 km/h (2 Bft) W22.5 280 0 min 14,2 klux 0,00 min 13,8 C 15,7 C
04.06.2008 16:01 16,7 C 16,9 C 83 % 1015 hPa 0,0 l/m 14,3 km/h (3 Bft) W22.5 270 0 min 18,2 klux 0,00 min 13,8 C 13,5 C
04.06.2008 16:16 16,3 C 16,2 C 83 % 1015 hPa 0,0 l/m 12,7 km/h (3 Bft) W22.5 270 0 min 7,66 klux 0,00 min 13,4 C 13,5 C
04.06.2008 16:31 15,8 C 15,6 C 85 % 1015 hPa 0,0 l/m 7,1 km/h (2 Bft) W-SW22.5 255 0 min 9,2 klux 0,00 min 13,3 C 15,4 C
04.06.2008 16:46 15,6 C 15,2 C 86 % 1015 hPa 0,0 l/m 6,0 km/h (2 Bft) W22.5 260 0 min 7,27 klux 0,00 min 13,3 C 15,6 C
04.06.2008 17:01 15,6 C 15,1 C 87 % 1015 hPa 0,0 l/m 9,6 km/h (2 Bft) W22.5 260 0 min 14,1 klux 0,00 min 13,4 C 14,0 C
04.06.2008 17:16 15,8 C 15,2 C 87 % 1015 hPa 0,0 l/m 3,1 km/h (1 Bft) W-SW 255 0 min 13,9 klux 0,00 min 13,6 C 15,8 C
04.06.2008 17:31 16,2 C 15,6 C 87 % 1015 hPa 0,0 l/m 0,0 km/h (0 Bft) W-SW 250 0 min 18,9 klux 0,00 min 14,0 C 16,2 C
04.06.2008 17:47 16,4 C 15,9 C 86 % 1015 hPa 0,0 l/m 9,0 km/h (2 Bft) W45 275 0 min 19,6 klux 0,00 min 14,1 C 15,1 C
04.06.2008 18:01 16,5 C 16,0 C 86 % 1014 hPa 7,5 l/m 4,9 km/h (1 Bft) W-SW22.5 255 0 min 17,6 klux 14,00 min 14,1 C 16,5 C
04.06.2008 18:16 16,4 C 15,8 C 86 % 1015 hPa 0,3 l/m 6,7 km/h (2 Bft) W-NW45 300 0 min 15,4 klux 15,00 min 14,1 C 16,3 C
04.06.2008 18:31 16,3 C 15,7 C 86 % 1015 hPa 0,3 l/m 4,5 km/h (1 Bft) W22.5 265 0 min 11,5 klux 15,00 min 14,0 C 16,3 C
04.06.2008 18:46 16,2 C 15,8 C 86 % 1015 hPa 0,0 l/m 6,7 km/h (2 Bft) W-NW22.5 295 0 min 11,9 klux 0,00 min 13,9 C 16,1 C
04.06.2008 19:01 16,3 C 16,0 C 87 % 1015 hPa 0,0 l/m 0,0 km/h (0 Bft) NW 315 0 min 13,6 klux 0,00 min 14,1 C 16,3 C
04.06.2008 19:16 16,4 C 16,2 C 86 % 1014 hPa 0,0 l/m 0,0 km/h (0 Bft) NW 305 0 min 14,7 klux 0,00 min 14,1 C 16,4 C
04.06.2008 19:32 16,6 C 16,4 C 86 % 1014 hPa 0,0 l/m 3,8 km/h (1 Bft) W 260 0 min 12,0 klux 0,00 min 14,2 C 16,6 C
04.06.2008 19:46 16,7 C 16,8 C 86 % 1014 hPa 0,0 l/m 4,3 km/h (1 Bft) W22.5 265 0 min 17,9 klux 0,00 min 14,3 C 16,7 C
04.06.2008 20:01 16,4 C 16,3 C 86 % 1014 hPa 0,0 l/m 6,3 km/h (2 Bft) W22.5 275 0 min 8,37 klux 0,00 min 14,1 C 16,4 C
04.06.2008 20:16 16,2 C 16,1 C 86 % 1015 hPa 0,0 l/m 1,0 km/h (0 Bft) W22.5 270 0 min 8,88 klux 0,00 min 13,9 C 16,2 C
04.06.2008 20:31 16,1 C 15,9 C 87 % 1015 hPa 0,0 l/m 0,0 km/h (0 Bft) W 260 0 min 6,23 klux 0,00 min 13,9 C 16,1 C
04.06.2008 20:46 15,9 C 15,6 C 87 % 1015 hPa 0,3 l/m 9,5 km/h (2 Bft) N-NO45 15 0 min 1,91 klux 15,00 min 13,7 C 14,3 C
04.06.2008 21:01 15,0 C 14,9 C 90 % 1015 hPa 4,8 l/m 21,6 km/h (4 Bft) N-NO67.5 15 0 min 326 lux 15,00 min 13,4 C 9,4 C
04.06.2008 21:16 14,4 C 14,6 C 92 % 1015 hPa 2,1 l/m 0,9 km/h (0 Bft) W22.5 280 0 min 248 lux 15,00 min 13,1 C 14,4 C
04.06.2008 21:31 14,3 C 14,4 C 93 % 1015 hPa 1,2 l/m 0,0 km/h (0 Bft) W-NW 285 0 min 189 lux 15,00 min 13,2 C 14,3 C
04.06.2008 21:46 14,2 C 14,3 C 93 % 1015 hPa 0,0 l/m 0,1 km/h (0 Bft) W22.5 280 0 min 114 lux 0,00 min 13,1 C 14,2 C
04.06.2008 22:01 14,2 C 14,2 C 94 % 1015 hPa 0,0 l/m 10,7 km/h (2 Bft) N-NW22.5 330 0 min 19 lux 0,00 min 13,2 C 11,9 C
04.06.2008 22:16 14,2 C 14,1 C 94 % 1015 hPa 0,0 l/m 5,6 km/h (1 Bft) N-NW67.5 335 0 min 9 lux 0,00 min 13,2 C 14,2 C
04.06.2008 22:31 14,2 C 14,1 C 94 % 1015 hPa 0,0 l/m 2,2 km/h (1 Bft) N-NW 330 0 min 0 lux 0,00 min 13,2 C 14,2 C
04.06.2008 22:46 14,2 C 14,0 C 94 % 1015 hPa 0,0 l/m 3,5 km/h (1 Bft) N-NW22.5 345 0 min 0 lux 0,00 min 13,2 C 14,2 C
04.06.2008 23:01 14,1 C 13,8 C 94 % 1015 hPa 0,0 l/m 0,0 km/h (0 Bft) NW 305 0 min 0 lux 0,00 min 13,1 C 14,1 C
04.06.2008 23:17 14,0 C 13,8 C 94 % 1015 hPa 0,0 l/m 0,0 km/h (0 Bft) NW 305 0 min 0 lux 0,00 min 13,0 C 14,0 C
04.06.2008 23:31 14,0 C 13,6 C 94 % 1015 hPa 0,0 l/m 0,0 km/h (0 Bft) NW 305 0 min 0 lux 0,00 min 13,0 C 14,0 C
04.06.2008 23:46 14,0 C 13,7 C 94 % 1015 hPa 0,0 l/m 0,0 km/h (0 Bft) NW 305 0 min 0 lux 0,00 min 13,0 C 14,0 C
_ Min-Zeit 02:31 02:16 13:01 00:02 - 00:02 - - - - - 02:16 21:01
Minimum _ 11,5 C 10,4 C 64 % 1014 hPa - 0,0 km/h (0 Bft) - - - - - 9,5 C 9,4 C
_ Max-Zeit 13:01 13:16 22:01 07:31 18:01 21:01 - - 10:46 13:16 14:31 10:46 13:01
Maximum _ 21,8 C 24,2 C 94 % 1015 hPa 7,5 l/m 21,6 km/h
N-NO (4 Bft)
- - 15 min 105 klux 15,00 min 14,7 C 20,3 C
Durchschnitt _ 15,3 C 15,2 C 84 % 1015 hPa #18,9 l/m 6,1 km/h (2 Bft) W - #1:30 h 15,3 klux #2:28 h 12,6 C 14,4 C